createdAt,value
2023-04-01T00:00:50.960Z,7.65
2023-04-01T00:03:52.548Z,7.48
2023-04-01T00:06:54.126Z,7.46
2023-04-01T00:09:55.578Z,7.50
2023-04-01T00:12:57.044Z,7.52
2023-04-01T00:15:59.989Z,7.59
2023-04-01T00:19:01.886Z,7.68
2023-04-01T00:22:03.428Z,7.67
2023-04-01T00:25:05.727Z,7.65
2023-04-01T00:28:07.219Z,7.75
2023-04-01T00:31:09.113Z,7.64
2023-04-01T00:34:10.984Z,7.52
2023-04-01T00:37:12.629Z,7.48
2023-04-01T00:40:29.219Z,7.48
2023-04-01T00:43:31.157Z,7.42
2023-04-01T00:46:32.645Z,7.33
2023-04-01T00:49:36.391Z,7.12
2023-04-01T00:52:37.845Z,7.27
2023-04-01T00:55:40.476Z,7.14
2023-04-01T00:58:47.565Z,7.14
2023-04-01T01:01:49.308Z,7.15
2023-04-01T01:04:51.012Z,7.13
2023-04-01T01:08:02.689Z,7.42
2023-04-01T01:11:04.175Z,7.35
2023-04-01T01:14:33.633Z,7.36
2023-04-01T01:18:03.283Z,7.18
2023-04-01T01:21:26.566Z,7.15
2023-04-01T01:24:58.516Z,7.13
2023-04-01T01:28:44.429Z,7.13
2023-04-01T01:32:04.508Z,7.14
2023-04-01T01:35:35.965Z,7.08
2023-04-01T01:38:37.545Z,7.12
2023-04-01T01:41:39.245Z,6.88
2023-04-01T01:44:40.738Z,6.93
2023-04-01T01:47:42.223Z,7.06
2023-04-01T01:50:44.409Z,7.02
2023-04-01T01:53:45.958Z,6.96
2023-04-01T01:56:49.549Z,6.83
2023-04-01T01:59:51.103Z,6.93
2023-04-01T02:02:52.645Z,6.97
2023-04-01T02:05:55.077Z,6.83
2023-04-01T02:09:03.997Z,6.87
2023-04-01T02:12:09.370Z,6.88
2023-04-01T02:15:11.380Z,6.89
2023-04-01T02:18:13.120Z,6.85
2023-04-01T02:21:14.604Z,7.01
2023-04-01T02:24:16.930Z,7.02
2023-04-01T02:27:18.442Z,6.88
2023-04-01T02:30:19.976Z,6.84
2023-04-01T02:33:22.365Z,7.08
2023-04-01T02:36:23.868Z,7.02
2023-04-01T02:39:27.174Z,6.95
2023-04-01T02:42:28.697Z,6.89
2023-04-01T02:45:30.144Z,7.02
2023-04-01T02:48:31.696Z,7.12
2023-04-01T02:51:33.786Z,7.02
2023-04-01T02:54:35.366Z,6.97
2023-04-01T02:57:36.836Z,6.91
2023-04-01T03:00:38.549Z,6.91
2023-04-01T03:03:40.077Z,6.82
2023-04-01T03:06:41.615Z,6.81
2023-04-01T03:09:43.146Z,6.77
2023-04-01T03:12:44.610Z,6.85
2023-04-01T03:15:46.050Z,6.84
2023-04-01T03:18:47.624Z,6.90
2023-04-01T03:21:49.104Z,6.94
2023-04-01T03:24:50.658Z,7.07
2023-04-01T03:27:52.188Z,7.22
2023-04-01T03:30:53.705Z,7.08
2023-04-01T03:33:55.296Z,7.00
2023-04-01T03:36:56.753Z,7.12
2023-04-01T03:39:58.206Z,7.02
2023-04-01T03:42:59.842Z,7.06
2023-04-01T03:46:01.459Z,7.06
2023-04-01T03:49:03.312Z,7.27
2023-04-01T03:52:04.795Z,7.20
2023-04-01T03:55:06.976Z,7.19
2023-04-01T03:58:08.611Z,7.11
2023-04-01T04:01:21.806Z,7.17
2023-04-01T04:04:23.338Z,7.27
2023-04-01T04:07:24.875Z,7.10
2023-04-01T04:10:26.369Z,7.18
2023-04-01T04:13:27.825Z,7.22
2023-04-01T04:16:29.509Z,7.27
2023-04-01T04:19:37.019Z,7.23
2023-04-01T04:22:38.500Z,7.22
2023-04-01T04:25:40.114Z,7.08
2023-04-01T04:28:41.583Z,7.10
2023-04-01T04:31:44.134Z,7.08
2023-04-01T04:34:45.631Z,7.12
2023-04-01T04:37:47.148Z,7.18
2023-04-01T04:40:48.593Z,7.16
2023-04-01T04:43:54.777Z,7.17
2023-04-01T04:46:58.409Z,7.13
2023-04-01T04:50:00.368Z,7.13
2023-04-01T04:53:01.971Z,7.09
2023-04-01T04:56:03.454Z,7.04
2023-04-01T04:59:05.073Z,7.11
2023-04-01T05:02:06.587Z,7.05
2023-04-01T05:05:08.355Z,6.99
2023-04-01T05:08:09.805Z,7.15
2023-04-01T05:11:13.971Z,6.93
2023-04-01T05:14:16.421Z,6.92
2023-04-01T05:17:17.897Z,7.02
2023-04-01T05:20:19.370Z,7.08
2023-04-01T05:23:24.629Z,7.01
2023-04-01T05:26:26.361Z,7.01
2023-04-01T05:29:27.819Z,7.08
2023-04-01T05:32:29.377Z,6.97
2023-04-01T05:35:31.062Z,7.10
2023-04-01T05:38:32.739Z,7.06
2023-04-01T05:41:36.634Z,6.99
2023-04-01T05:44:38.077Z,6.97
2023-04-01T05:47:39.626Z,7.07
2023-04-01T05:50:42.535Z,7.02
2023-04-01T05:53:44.153Z,6.96
2023-04-01T05:56:47.515Z,6.91
2023-04-01T05:59:50.289Z,7.08
2023-04-01T06:02:53.266Z,7.08
2023-04-01T06:05:54.855Z,6.92
2023-04-01T06:08:57.657Z,7.09
2023-04-01T06:12:17.270Z,7.11
2023-04-01T06:15:27.328Z,7.06
2023-04-01T06:18:56.059Z,7.06
2023-04-01T06:22:15.232Z,7.10
2023-04-01T06:25:22.442Z,6.96
2023-04-01T06:28:44.395Z,7.25
2023-04-01T06:31:45.863Z,7.32
2023-04-01T06:34:54.301Z,7.27
2023-04-01T06:38:04.822Z,7.30
2023-04-01T06:41:33.024Z,7.33
2023-04-01T06:44:41.640Z,7.19
2023-04-01T06:48:05.047Z,7.17
2023-04-01T06:51:13.594Z,7.03
2023-04-01T06:54:42.043Z,7.12
2023-04-01T06:57:48.198Z,7.04
2023-04-01T07:00:52.060Z,7.10
2023-04-01T07:04:08.115Z,7.35
2023-04-01T07:07:42.419Z,7.23
2023-04-01T07:11:03.145Z,7.22
2023-04-01T07:14:17.593Z,7.27
2023-04-01T07:17:24.524Z,7.14
2023-04-01T07:20:33.306Z,7.38
2023-04-01T07:23:42.025Z,7.40
2023-04-01T07:26:43.984Z,7.13
2023-04-01T07:29:46.149Z,7.10
2023-04-01T07:33:25.549Z,7.07
2023-04-01T07:36:26.889Z,7.10
2023-04-01T07:39:54.329Z,7.19
2023-04-01T07:43:44.934Z,7.19
2023-04-01T07:46:52.457Z,7.05
2023-04-01T07:50:18.316Z,7.21
2023-04-01T07:53:37.783Z,7.11
2023-04-01T07:56:46.952Z,7.18
2023-04-01T07:59:52.974Z,7.10
2023-04-01T08:03:33.152Z,7.22
2023-04-01T08:06:48.625Z,7.12
2023-04-01T08:10:09.591Z,7.20
2023-04-01T08:13:15.684Z,7.09
2023-04-01T08:16:28.562Z,7.21
2023-04-01T08:19:57.308Z,7.12
2023-04-01T08:23:02.649Z,7.20
2023-04-01T08:26:06.175Z,7.01
2023-04-01T08:29:12.686Z,6.98
2023-04-01T08:32:19.656Z,6.96
2023-04-01T08:35:33.743Z,7.06
2023-04-01T08:39:00.978Z,7.07
2023-04-01T08:42:02.321Z,7.12
2023-04-01T08:45:42.389Z,6.98
2023-04-01T08:48:44.018Z,6.90
2023-04-01T08:52:03.926Z,6.94
2023-04-01T08:55:26.245Z,7.02
2023-04-01T08:58:38.116Z,6.96
2023-04-01T09:01:58.664Z,6.90
2023-04-01T09:05:18.575Z,6.93
2023-04-01T09:08:33.301Z,6.94
2023-04-01T09:11:57.971Z,6.91
2023-04-01T09:15:08.325Z,7.02
2023-04-01T09:18:28.554Z,6.94
2023-04-01T09:21:38.979Z,6.96
2023-04-01T09:24:49.765Z,6.96
2023-04-01T09:28:09.953Z,7.09
2023-04-01T09:31:20.968Z,7.15
2023-04-01T09:34:27.373Z,7.19
2023-04-01T09:37:37.170Z,7.29
2023-04-01T09:41:24.895Z,7.20
2023-04-01T09:44:35.519Z,7.20
2023-04-01T09:48:03.654Z,7.14
2023-04-01T09:51:31.783Z,7.18
2023-04-01T09:54:36.189Z,7.16
2023-04-01T09:58:16.107Z,7.12
2023-04-01T10:01:26.608Z,7.11
2023-04-01T10:04:55.765Z,7.17
2023-04-01T10:08:38.102Z,7.16
2023-04-01T10:12:01.543Z,7.25
2023-04-01T10:15:25.470Z,7.12
2023-04-01T10:18:51.272Z,7.25
2023-04-01T10:22:17.589Z,7.18
2023-04-01T10:25:32.020Z,7.17
2023-04-01T10:28:39.717Z,7.20
2023-04-01T10:32:03.935Z,7.08
2023-04-01T10:35:30.499Z,7.06
2023-04-01T10:38:54.360Z,7.12
2023-04-01T10:42:28.240Z,7.12
2023-04-01T10:46:07.593Z,7.11
2023-04-01T10:49:17.841Z,7.28
2023-04-01T10:52:38.051Z,7.25
2023-04-01T10:56:11.425Z,7.38
2023-04-01T10:59:22.043Z,7.17
2023-04-01T11:02:35.713Z,7.10
2023-04-01T11:05:57.371Z,7.06
2023-04-01T11:09:22.970Z,7.09
2023-04-01T11:12:52.417Z,7.11
2023-04-01T11:16:18.662Z,7.13
2023-04-01T11:19:56.131Z,7.02
2023-04-01T11:23:25.482Z,7.01
2023-04-01T11:26:42.354Z,6.97
2023-04-01T11:30:19.066Z,7.11
2023-04-01T11:33:31.598Z,7.01
2023-04-01T11:37:07.360Z,7.10
2023-04-01T11:40:30.116Z,7.08
2023-04-01T11:44:02.014Z,7.11
2023-04-01T11:47:39.116Z,7.25
2023-04-01T11:50:59.094Z,7.26
2023-04-01T11:54:04.435Z,7.18
2023-04-01T11:57:23.757Z,7.33
2023-04-01T12:00:43.953Z,7.28
2023-04-01T12:03:48.472Z,7.36
2023-04-01T12:07:07.098Z,7.43
2023-04-01T12:10:30.569Z,7.32
2023-04-01T12:13:46.867Z,7.36
2023-04-01T12:17:00.457Z,7.27
2023-04-01T12:20:13.893Z,7.26
2023-04-01T12:23:31.962Z,7.35
2023-04-01T12:27:04.026Z,7.31
2023-04-01T12:30:36.482Z,7.47
2023-04-01T12:33:56.139Z,7.40
2023-04-01T12:37:21.566Z,7.45
2023-04-01T12:40:41.253Z,7.46
2023-04-01T12:44:20.692Z,7.39
2023-04-01T12:47:40.281Z,7.49
2023-04-01T12:51:08.302Z,7.39
2023-04-01T12:54:38.747Z,7.52
2023-04-01T12:58:06.745Z,7.43
2023-04-01T13:01:17.613Z,7.48
2023-04-01T13:04:37.637Z,7.52
2023-04-01T13:07:54.330Z,7.52
2023-04-01T13:11:24.140Z,7.47
2023-04-01T13:14:47.502Z,7.56
2023-04-01T13:17:55.702Z,7.53
2023-04-01T13:21:20.622Z,7.73
2023-04-01T13:24:43.914Z,7.65
2023-04-01T13:27:45.905Z,7.61
2023-04-01T13:31:02.284Z,7.78
2023-04-01T13:34:18.939Z,7.66
2023-04-01T13:37:48.493Z,7.80
2023-04-01T13:41:03.826Z,7.76
2023-04-01T13:44:32.362Z,7.71
2023-04-01T13:48:03.209Z,7.67
2023-04-01T13:51:13.629Z,7.69
2023-04-01T13:54:47.669Z,7.83
2023-04-01T13:57:56.123Z,7.72
2023-04-01T14:01:28.381Z,7.82
2023-04-01T14:04:51.632Z,7.90
2023-04-01T14:08:20.568Z,7.95
2023-04-01T14:11:34.838Z,8.13
2023-04-01T14:14:55.102Z,8.10
2023-04-01T14:18:19.871Z,8.42
2023-04-01T14:21:27.894Z,8.27
2023-04-01T14:24:59.894Z,8.19
2023-04-01T14:28:13.256Z,8.18
2023-04-01T14:31:48.759Z,8.16
2023-04-01T14:35:27.944Z,8.24
2023-04-01T14:39:20.890Z,8.35
2023-04-01T14:42:25.949Z,8.29
2023-04-01T14:45:37.960Z,8.33
2023-04-01T14:48:40.876Z,8.33
2023-04-01T14:51:42.731Z,8.38
2023-04-01T14:54:45.869Z,8.26
2023-04-01T14:58:06.069Z,8.22
2023-04-01T15:01:16.872Z,8.16
2023-04-01T15:04:32.657Z,8.21
2023-04-01T15:07:58.758Z,8.36
2023-04-01T15:11:20.144Z,8.33
2023-04-01T15:14:24.428Z,8.33
2023-04-01T15:18:05.177Z,8.37
2023-04-01T15:21:26.813Z,8.28
2023-04-01T15:25:05.632Z,8.37
2023-04-01T15:28:12.953Z,8.38
2023-04-01T15:31:27.772Z,8.45
2023-04-01T15:34:35.469Z,8.68
2023-04-01T15:37:42.001Z,8.80
2023-04-01T15:40:48.739Z,8.73
2023-04-01T15:43:52.886Z,8.76
2023-04-01T15:46:54.390Z,8.78
2023-04-01T15:50:28.417Z,8.82
2023-04-01T15:53:29.811Z,8.98
2023-04-01T15:56:56.252Z,8.99
2023-04-01T16:00:19.537Z,8.74
2023-04-01T16:03:29.891Z,8.82
2023-04-01T16:06:43.451Z,8.74
2023-04-01T16:10:17.886Z,8.85
2023-04-01T16:13:34.651Z,8.52
2023-04-01T16:16:57.709Z,8.55
2023-04-01T16:20:14.426Z,8.66
2023-04-01T16:23:31.018Z,8.63
2023-04-01T16:26:43.867Z,8.66
2023-04-01T16:30:03.243Z,8.73
2023-04-01T16:33:11.384Z,8.60
2023-04-01T16:36:31.618Z,8.71
2023-04-01T16:39:51.679Z,8.69
2023-04-01T16:43:06.110Z,8.58
2023-04-01T16:46:23.046Z,8.62
2023-04-01T16:49:39.999Z,8.61
2023-04-01T16:53:31.320Z,8.53
2023-04-01T16:57:11.341Z,8.48
2023-04-01T17:00:29.950Z,8.48
2023-04-01T17:03:34.764Z,8.54
2023-04-01T17:07:16.285Z,8.34
2023-04-01T17:10:23.271Z,8.33
2023-04-01T17:13:48.510Z,8.39
2023-04-01T17:17:17.908Z,8.48
2023-04-01T17:20:28.020Z,8.40
2023-04-01T17:23:34.662Z,8.47
2023-04-01T17:26:47.152Z,8.39
2023-04-01T17:30:22.016Z,8.37
2023-04-01T17:33:37.301Z,8.38
2023-04-01T17:36:46.944Z,8.21
2023-04-01T17:39:55.228Z,8.13
2023-04-01T17:43:06.856Z,7.93
2023-04-01T17:46:24.549Z,7.92
2023-04-01T17:49:40.944Z,7.73
2023-04-01T17:52:46.839Z,7.42
2023-04-01T17:56:13.172Z,7.11
2023-04-01T17:59:33.224Z,7.10
2023-04-01T18:02:56.243Z,7.08
2023-04-01T18:06:21.012Z,7.14
2023-04-01T18:10:00.216Z,7.19
2023-04-01T18:13:26.510Z,7.15
2023-04-01T18:17:09.595Z,7.14
2023-04-01T18:20:21.112Z,7.23
2023-04-01T18:23:42.800Z,7.24
2023-04-01T18:26:52.388Z,7.19
2023-04-01T18:30:09.102Z,7.21
2023-04-01T18:33:18.935Z,7.18
2023-04-01T18:36:42.399Z,7.13
2023-04-01T18:39:48.574Z,6.91
2023-04-01T18:43:21.015Z,6.96
2023-04-01T18:46:31.245Z,7.10
2023-04-01T18:50:11.596Z,7.16
2023-04-01T18:53:38.156Z,7.08
2023-04-01T18:56:39.826Z,6.96
2023-04-01T18:59:48.127Z,6.87
2023-04-01T19:02:59.185Z,6.90
2023-04-01T19:06:01.924Z,6.86
2023-04-01T19:09:53.231Z,6.82
2023-04-01T19:13:18.954Z,6.84
2023-04-01T19:16:49.517Z,6.83
2023-04-01T19:19:57.499Z,6.83
2023-04-01T19:23:32.589Z,6.80
2023-04-01T19:26:47.802Z,6.81
2023-04-01T19:30:14.272Z,6.74
2023-04-01T19:33:41.308Z,6.84
2023-04-01T19:36:47.974Z,6.66
2023-04-01T19:40:42.293Z,6.72
2023-04-01T19:44:01.991Z,6.63
2023-04-01T19:47:16.021Z,6.63
2023-04-01T19:50:30.331Z,6.49
2023-04-01T19:53:57.468Z,6.60
2023-04-01T19:57:07.958Z,6.17
2023-04-01T20:00:19.553Z,6.13
2023-04-01T20:03:57.231Z,5.82
2023-04-01T20:07:21.987Z,5.95
2023-04-01T20:10:33.854Z,5.98
2023-04-01T20:14:13.755Z,5.91
2023-04-01T20:17:26.102Z,6.08
2023-04-01T20:20:31.024Z,6.11
2023-04-01T20:23:46.403Z,6.08
2023-04-01T20:26:51.391Z,6.12
2023-04-01T20:30:29.062Z,6.16
2023-04-01T20:33:49.284Z,6.10
2023-04-01T20:37:14.744Z,6.00
2023-04-01T20:41:02.369Z,5.95
2023-04-01T20:44:12.217Z,5.86
2023-04-01T20:47:31.431Z,5.85
2023-04-01T20:50:42.950Z,5.91
2023-04-01T20:53:44.417Z,5.93
2023-04-01T20:57:03.864Z,5.84
2023-04-01T21:00:32.800Z,5.80
2023-04-01T21:03:50.050Z,5.79
2023-04-01T21:07:03.548Z,5.90
2023-04-01T21:10:14.273Z,5.97
2023-04-01T21:13:30.995Z,5.91
2023-04-01T21:16:51.005Z,5.84
2023-04-01T21:20:14.869Z,5.92
2023-04-01T21:23:41.162Z,5.93
2023-04-01T21:27:20.773Z,5.99
2023-04-01T21:30:41.473Z,6.05
2023-04-01T21:33:59.768Z,5.96
2023-04-01T21:37:06.926Z,6.05
2023-04-01T21:40:59.780Z,5.98
2023-04-01T21:44:23.169Z,6.06
2023-04-01T21:47:52.454Z,6.11
2023-04-01T21:51:12.342Z,5.96
2023-04-01T21:54:39.649Z,6.04
2023-04-01T21:58:22.547Z,6.08
2023-04-01T22:01:45.220Z,6.17
2023-04-01T22:04:46.575Z,6.12
2023-04-01T22:07:54.067Z,6.13
2023-04-01T22:11:13.981Z,6.08
2023-04-01T22:14:21.469Z,6.07
2023-04-01T22:17:41.233Z,5.99
2023-04-01T22:21:06.239Z,6.02
2023-04-01T22:24:16.911Z,6.08
2023-04-01T22:27:27.267Z,6.09
2023-04-01T22:30:43.263Z,6.13
2023-04-01T22:33:50.851Z,6.11
2023-04-01T22:37:07.974Z,6.07
2023-04-01T22:40:22.460Z,6.07
2023-04-01T22:43:39.779Z,6.16
2023-04-01T22:47:15.944Z,6.12
2023-04-01T22:50:23.022Z,6.11
2023-04-01T22:53:28.351Z,6.10
2023-04-01T22:57:14.815Z,6.09
2023-04-01T23:00:22.752Z,6.02
2023-04-01T23:03:30.144Z,6.15
2023-04-01T23:06:39.388Z,6.10
2023-04-01T23:09:40.938Z,6.09
2023-04-01T23:12:42.465Z,6.09
2023-04-01T23:15:43.980Z,6.02
2023-04-01T23:19:03.399Z,6.08
2023-04-01T23:22:26.862Z,5.99
2023-04-01T23:25:37.022Z,5.96
2023-04-01T23:28:52.452Z,6.02
2023-04-01T23:32:01.057Z,6.06
2023-04-01T23:35:02.564Z,6.11
2023-04-01T23:38:04.115Z,6.08
2023-04-01T23:41:05.678Z,6.06
2023-04-01T23:44:12.423Z,6.12
2023-04-01T23:47:17.692Z,6.11
2023-04-01T23:50:21.372Z,6.08
2023-04-01T23:53:25.744Z,6.00
2023-04-01T23:56:35.817Z,6.01
2023-04-01T23:59:37.345Z,5.96
